Time;durP1;ratioP1;P1;durP2;ratioP2;P2;SDS_P1;SDS_P2;PMS_P1;PMS_P2;Temp;Humidity;BMP_temperature;BMP_pressure;BME280_temperature;BME280_humidity;BME280_pressure;Samples;Min_cycle;Max_cycle;Signal;HPM_P1;HPM_P2
2023/05/31 00:02:07;;;;;;;2.33;1.13;;;;;;;13.13;72.68;102764.41;5092900;27;97964;-28
2023/05/31 00:04:32;;;;;;;2.95;1.15;;;;;;;13.13;73.99;102767.13;5074518;27;100882;-27
2023/05/31 00:06:58;;;;;;;3.67;1.50;;;;;;;13.11;73.65;102759.03;5093489;27;96472;-28
2023/05/31 00:09:23;;;;;;;2.35;1.15;;;;;;;13.06;73.23;102760.16;5093222;27;99879;-29
2023/05/31 00:11:48;;;;;;;2.40;1.33;;;;;;;13.04;74.43;102768.41;5092945;27;107756;-28
2023/05/31 00:14:13;;;;;;;1.85;1.20;;;;;;;12.97;74.53;102758.72;5093256;27;97348;-28
2023/05/31 00:16:39;;;;;;;2.65;1.20;;;;;;;12.95;74.23;102766.06;5093076;27;96698;-28
2023/05/31 00:19:04;;;;;;;2.70;1.20;;;;;;;12.95;74.67;102768.78;5093924;27;96791;-29
2023/05/31 00:21:30;;;;;;;2.33;1.08;;;;;;;12.91;74.17;102764.41;5093016;27;98807;-28
2023/05/31 00:23:55;;;;;;;1.92;1.05;;;;;;;12.94;74.41;102767.00;5093192;27;97096;-27
2023/05/31 00:26:22;;;;;;;2.30;1.10;;;;;;;12.89;74.39;102769.00;5093154;27;96445;-28
2023/05/31 00:28:47;;;;;;;1.98;1.20;;;;;;;12.91;74.74;102767.13;5074484;27;96907;-28
2023/05/31 00:31:12;;;;;;;2.40;1.05;;;;;;;12.93;74.24;102771.56;5093145;27;97477;-28
2023/05/31 00:33:38;;;;;;;2.17;1.17;;;;;;;12.89;74.62;102764.44;5092706;27;97289;-28
2023/05/31 00:36:03;;;;;;;3.10;1.45;;;;;;;12.85;74.96;102760.09;5073583;27;103297;-29
2023/05/31 00:38:28;;;;;;;2.17;1.17;;;;;;;12.81;74.15;102758.44;5094608;27;96800;-28
2023/05/31 00:40:54;;;;;;;4.88;1.13;;;;;;;12.78;74.64;102749.56;5096517;27;97633;-27
2023/05/31 00:43:19;;;;;;;2.00;1.00;;;;;;;12.81;75.65;102750.28;5096880;27;97429;-27
2023/05/31 00:45:44;;;;;;;2.28;0.90;;;;;;;12.78;75.82;102758.59;5096534;27;96534;-27
2023/05/31 00:48:10;;;;;;;4.78;1.38;;;;;;;12.74;74.48;102751.50;5096121;27;96943;-28
2023/05/31 00:50:35;;;;;;;2.67;1.50;;;;;;;12.71;75.46;102749.78;5096274;27;97364;-28
2023/05/31 00:53:01;;;;;;;2.05;1.15;;;;;;;12.63;75.65;102746.50;5096162;27;99150;-28
2023/05/31 00:55:28;;;;;;;2.90;1.40;;;;;;;12.63;74.96;102745.59;5096279;27;96630;-27
2023/05/31 00:57:53;;;;;;;2.70;1.30;;;;;;;12.63;75.21;102757.38;5077681;27;96738;-28
2023/05/31 01:00:19;;;;;;;2.42;0.98;;;;;;;12.59;75.12;102754.84;5095905;27;99653;-27
2023/05/31 01:02:45;;;;;;;1.92;0.98;;;;;;;12.58;75.06;102753.91;5095895;27;97748;-28
2023/05/31 01:05:10;;;;;;;1.67;1.08;;;;;;;12.63;74.66;102764.63;5096096;27;96519;-28
2023/05/31 01:07:37;;;;;;;1.67;1.27;;;;;;;12.59;76.00;102754.84;5096469;27;96853;-28
2023/05/31 01:10:05;;;;;;;2.25;1.20;;;;;;;12.62;74.95;102766.44;5077205;27;101181;-28
2023/05/31 01:13:12;;;;;;;2.58;1.20;;;;;;;12.60;75.85;102762.91;5077247;27;100707;-29
2023/05/31 01:15:52;;;;;;;1.70;0.93;;;;;;;12.53;75.67;102755.94;5095324;27;96723;-27
2023/05/31 01:18:34;;;;;;;2.40;1.08;;;;;;;12.50;75.80;102751.50;5077394;27;96718;-28
2023/05/31 01:21:03;;;;;;;;;;;;;;;12.56;76.46;102763.09;5096384;27;98398;-27
2023/05/31 01:23:32;;;;;;;1.92;0.80;;;;;;;12.53;75.82;102764.97;5077019;27;101106;-27
2023/05/31 01:26:22;;;;;;;1.30;0.85;;;;;;;12.57;76.76;102767.59;5095689;27;96560;-28
2023/05/31 01:28:53;;;;;;;1.70;0.93;;;;;;;12.56;75.70;102771.25;5095609;27;96868;-28
2023/05/31 01:31:21;;;;;;;1.80;1.10;;;;;;;12.48;76.51;102760.66;5077220;27;100983;-27
2023/05/31 01:33:48;;;;;;;3.90;1.23;;;;;;;12.45;75.70;102755.38;5076907;27;100985;-28
2023/05/31 01:36:14;;;;;;;3.10;1.35;;;;;;;12.49;76.12;102760.63;5076080;27;96865;-28
2023/05/31 01:38:39;;;;;;;4.30;1.08;;;;;;;12.46;77.12;102751.69;5095421;27;96855;-27
2023/05/31 01:41:08;;;;;;;2.40;1.23;;;;;;;12.49;75.55;102770.63;5094829;27;99283;-28
2023/05/31 01:43:37;;;;;;;1.58;0.98;;;;;;;12.47;76.25;102758.91;5076667;27;100912;-27
2023/05/31 01:46:03;;;;;;;2.35;1.25;;;;;;;12.42;76.44;102755.47;5076808;27;96652;-28
2023/05/31 01:48:29;;;;;;;3.25;1.30;;;;;;;12.37;76.17;102754.75;5076839;27;96824;-28
2023/05/31 01:50:57;;;;;;;3.05;1.60;;;;;;;12.36;76.13;102758.44;5075292;27;101071;-28
2023/05/31 01:53:23;;;;;;;3.50;1.40;;;;;;;12.27;76.80;102762.38;5076659;27;100782;-28
2023/05/31 01:55:48;;;;;;;1.90;1.25;;;;;;;12.26;77.79;102757.91;5095081;27;96698;-27
2023/05/31 01:58:16;;;;;;;2.65;1.15;;;;;;;12.23;76.58;102758.91;5095719;27;96750;-28
2023/05/31 02:00:43;;;;;;;3.00;1.63;;;;;;;12.27;77.32;102765.97;5076414;27;100960;-28
2023/05/31 02:03:09;;;;;;;3.03;1.52;;;;;;;12.20;77.20;102752.69;5076515;27;101374;-28
2023/05/31 02:05:34;;;;;;;2.75;0.90;;;;;;;12.21;77.46;102747.19;5075950;27;97222;-28
2023/05/31 02:08:00;;;;;;;2.22;1.20;;;;;;;12.27;76.66;102765.97;5095111;27;96801;-28
2023/05/31 02:10:25;;;;;;;3.25;1.50;;;;;;;12.15;76.78;102755.56;5094785;27;105895;-27
2023/05/31 02:12:53;;;;;;;1.77;1.00;;;;;;;12.15;77.82;102749.25;5095019;27;102219;-28
2023/05/31 02:15:19;;;;;;;1.88;1.27;;;;;;;12.18;78.62;102754.56;5094918;27;96629;-28
2023/05/31 02:17:46;;;;;;;2.20;1.08;;;;;;;12.03;77.59;102740.63;5076386;27;96893;-28
2023/05/31 02:20:13;;;;;;;2.47;1.30;;;;;;;12.10;77.29;102752.16;5094695;27;99484;-28
2023/05/31 02:22:40;;;;;;;2.38;1.33;;;;;;;12.02;77.70;102747.00;5076714;27;100714;-28
2023/05/31 02:25:11;;;;;;;1.83;1.25;;;;;;;12.10;77.68;102763.00;5076380;27;96570;-28
2023/05/31 02:27:37;;;;;;;2.97;1.55;;;;;;;12.01;77.38;102747.06;5095223;27;96443;-28
2023/05/31 02:30:06;;;;;;;3.15;1.45;;;;;;;12.02;78.30;102754.28;5075570;27;101337;-28
2023/05/31 02:32:37;;;;;;;2.20;1.30;;;;;;;12.01;77.56;102763.34;5075388;27;101866;-28
2023/05/31 02:35:07;;;;;;;4.65;1.90;;;;;;;11.96;78.43;102758.09;5075747;27;96790;-28
2023/05/31 02:37:32;;;;;;;2.40;1.45;;;;;;;11.92;78.27;102748.31;5075963;27;96780;-28
2023/05/31 02:39:58;;;;;;;2.78;1.45;;;;;;;11.93;78.29;102749.19;5094309;27;99641;-28
2023/05/31 02:42:23;;;;;;;5.25;1.60;;;;;;;11.93;77.75;102757.31;5094280;27;99258;-28
2023/05/31 02:44:49;;;;;;;2.55;1.40;;;;;;;11.88;77.54;102752.06;5094230;27;96493;-29
2023/05/31 02:47:15;;;;;;;2.05;1.10;;;;;;;11.86;77.89;102754.78;5095063;27;96733;-27
2023/05/31 02:49:40;;;;;;;2.30;1.17;;;;;;;11.88;78.71;102750.22;5094486;27;98032;-28
2023/05/31 02:52:06;;;;;;;3.47;1.60;;;;;;;11.85;79.52;102758.47;5093889;27;115660;-27
2023/05/31 02:54:31;;;;;;;1.95;1.02;;;;;;;11.78;79.12;102754.19;5094099;27;96462;-28
2023/05/31 02:56:56;;;;;;;2.45;1.23;;;;;;;11.82;78.24;102752.22;5094011;27;106622;-28
2023/05/31 02:59:23;;;;;;;3.33;1.38;;;;;;;11.80;78.26;102749.59;5093995;27;105080;-29
2023/05/31 03:01:48;;;;;;;3.03;1.58;;;;;;;11.77;78.48;102746.97;5094103;27;98062;-28
2023/05/31 03:04:13;;;;;;;2.00;0.98;;;;;;;11.77;78.53;102741.53;5094104;27;102711;-28
2023/05/31 03:06:39;;;;;;;3.72;1.70;;;;;;;11.78;78.48;102746.03;5094448;27;96801;-27
2023/05/31 03:09:07;;;;;;;3.05;1.63;;;;;;;11.80;78.55;102744.16;5094181;27;97966;-28
2023/05/31 03:11:32;;;;;;;3.42;1.63;;;;;;;11.77;78.57;102743.38;5075833;27;100874;-28
2023/05/31 03:13:58;;;;;;;3.97;1.38;;;;;;;11.74;78.59;102738.06;5093879;27;96466;-28
2023/05/31 03:16:24;;;;;;;3.83;1.70;;;;;;;11.77;78.71;102736.09;5093817;27;99531;-28
2023/05/31 03:18:50;;;;;;;2.70;1.30;;;;;;;11.81;79.02;102731.47;5093189;27;99831;-28
2023/05/31 03:21:16;;;;;;;3.17;1.48;;;;;;;11.83;78.13;102740.44;5093872;27;97806;-28
2023/05/31 03:23:41;;;;;;;2.75;1.45;;;;;;;11.80;78.88;102737.84;5093916;27;96472;-28
2023/05/31 03:26:06;;;;;;;3.15;1.58;;;;;;;11.80;78.73;102735.13;5093986;27;96752;-28
2023/05/31 03:28:31;;;;;;;1.83;1.20;;;;;;;11.87;79.21;102736.72;5093874;27;98897;-27
2023/05/31 03:30:57;;;;;;;2.17;1.27;;;;;;;11.80;77.75;102719.72;5074851;27;105604;-27
2023/05/31 03:33:23;;;;;;;2.83;1.30;;;;;;;11.81;78.90;102728.75;5093511;27;97115;-28
2023/05/31 03:35:49;;;;;;;3.85;1.77;;;;;;;11.85;78.47;102736.72;5093496;27;96871;-28
2023/05/31 03:38:14;;;;;;;2.10;1.27;;;;;;;11.84;78.47;102736.78;5093450;27;99490;-28
2023/05/31 03:40:40;;;;;;;4.65;1.33;;;;;;;11.75;78.73;102719.00;5093656;27;97830;-27
2023/05/31 03:43:05;;;;;;;5.15;1.83;;;;;;;11.84;78.32;102739.50;5093217;27;97281;-29
2023/05/31 03:45:30;;;;;;;2.25;1.55;;;;;;;11.81;77.77;102731.47;5093231;27;100994;-28
2023/05/31 03:47:55;;;;;;;3.80;1.70;;;;;;;11.70;78.83;102718.28;5093547;27;97995;-27
2023/05/31 03:50:21;;;;;;;3.05;1.20;;;;;;;11.81;78.51;102720.59;5092749;27;121096;-28
2023/05/31 03:52:46;;;;;;;3.80;1.30;;;;;;;11.83;78.93;102727.75;5075068;27;96654;-27
2023/05/31 03:55:11;;;;;;;2.58;1.38;;;;;;;11.81;78.21;102724.19;5074886;27;96893;-28
2023/05/31 03:57:37;;;;;;;3.22;1.73;;;;;;;11.79;78.99;102728.81;5093390;27;97917;-28
2023/05/31 04:00:03;;;;;;;2.92;1.27;;;;;;;11.81;78.45;102726.91;5093681;27;97904;-28
2023/05/31 04:02:28;;;;;;;1.77;1.25;;;;;;;11.80;79.41;102738.75;5074844;27;96777;-28
2023/05/31 04:04:53;;;;;;;5.32;1.73;;;;;;;11.81;78.57;102734.19;5093565;27;96484;-27
2023/05/31 04:07:19;;;;;;;2.60;1.30;;;;;;;11.81;79.36;102745.94;5092476;27;112983;-29
2023/05/31 04:09:44;;;;;;;5.32;1.55;;;;;;;11.80;78.50;102751.44;5074559;27;101092;-29
2023/05/31 04:12:10;;;;;;;3.70;1.58;;;;;;;11.83;78.94;102757.63;5093405;27;96598;-28
2023/05/31 04:14:35;;;;;;;3.90;1.35;;;;;;;11.82;78.87;102744.09;5096676;27;96757;-28
2023/05/31 04:17:00;;;;;;;4.35;1.17;;;;;;;11.82;79.42;102747.72;5096315;27;98929;-28
2023/05/31 04:19:26;;;;;;;3.58;1.58;;;;;;;11.83;78.92;102754.03;5096903;27;97369;-28
2023/05/31 04:21:51;;;;;;;2.75;1.35;;;;;;;11.80;78.94;102738.75;5096894;27;97888;-29
2023/05/31 04:24:16;;;;;;;2.47;1.45;;;;;;;11.82;78.91;102752.22;5097101;27;105111;-28
2023/05/31 04:26:42;;;;;;;5.60;1.80;;;;;;;11.83;78.84;102744.03;5096527;27;99553;-29
2023/05/31 04:29:07;;;;;;;2.33;1.33;;;;;;;11.87;78.82;102753.91;5096215;27;99350;-28
2023/05/31 04:31:36;;;;;;;2.08;1.15;;;;;;;11.85;78.55;102758.47;5096248;27;96522;-27
2023/05/31 04:34:03;;;;;;;3.22;1.67;;;;;;;11.79;77.96;102749.63;5096573;27;96844;-29
2023/05/31 04:36:29;;;;;;;4.13;1.85;;;;;;;11.81;78.81;102755.91;5077063;27;100996;-28
2023/05/31 04:38:55;;;;;;;2.13;1.13;;;;;;;11.80;79.00;102759.56;5096525;27;97820;-29
2023/05/31 04:41:26;;;;;;;2.88;1.20;;;;;;;11.80;78.79;102755.03;5077976;27;96566;-28
2023/05/31 04:43:53;;;;;;;2.27;1.17;;;;;;;11.78;78.89;102750.59;5077887;27;96740;-28
2023/05/31 04:46:19;;;;;;;3.88;1.55;;;;;;;11.83;78.42;102759.47;5077723;27;100995;-28
2023/05/31 04:48:47;;;;;;;2.78;1.60;;;;;;;11.89;78.39;102765.59;5096677;27;97282;-28
2023/05/31 04:51:13;;;;;;;2.70;1.35;;;;;;;11.85;78.49;102763.00;5077749;27;96626;-28
2023/05/31 04:53:38;;;;;;;3.13;1.55;;;;;;;11.84;78.60;102759.38;5077870;27;96817;-28
2023/05/31 04:56:06;;;;;;;3.50;1.40;;;;;;;11.87;79.14;102750.31;5095455;27;97894;-28
2023/05/31 04:58:32;;;;;;;2.90;1.73;;;;;;;11.86;78.50;102738.50;5077526;27;100962;-29
2023/05/31 05:00:59;;;;;;;3.33;1.58;;;;;;;11.91;78.20;102754.66;5096449;27;96501;-28
2023/05/31 05:03:25;;;;;;;3.13;1.77;;;;;;;11.90;78.10;102753.78;5096106;27;96831;-28
2023/05/31 05:05:52;;;;;;;3.63;1.70;;;;;;;11.96;78.53;102754.50;5060238;27;101025;-28
2023/05/31 05:08:17;;;;;;;4.20;2.13;;;;;;;11.93;78.61;102750.06;5077329;27;101188;-27
2023/05/31 05:10:43;;;;;;;3.60;1.95;;;;;;;12.02;78.43;102759.72;5096258;27;96597;-28
2023/05/31 05:13:08;;;;;;;4.15;1.92;;;;;;;12.05;77.66;102754.16;5096556;27;96903;-28
2023/05/31 05:15:34;;;;;;;4.60;2.10;;;;;;;12.05;78.10;102754.16;5095804;27;97948;-32
2023/05/31 05:17:59;;;;;;;4.55;1.92;;;;;;;12.13;78.35;102757.44;5095627;27;99135;-27
2023/05/31 05:20:25;;;;;;;3.67;1.73;;;;;;;12.14;78.66;102753.81;5095321;27;96524;-28
2023/05/31 05:22:51;;;;;;;4.15;2.00;;;;;;;12.24;78.14;102757.06;5095985;27;96826;-27
2023/05/31 05:25:17;;;;;;;2.90;1.80;;;;;;;12.26;77.82;102763.34;5075480;27;100802;-28
2023/05/31 05:27:42;;;;;;;5.13;1.92;;;;;;;12.26;78.73;102768.75;5095751;27;97904;-27
2023/05/31 05:30:09;;;;;;;6.32;1.95;;;;;;;12.35;76.91;102763.00;5095223;27;103139;-28
2023/05/31 05:32:34;;;;;;;3.20;1.77;;;;;;;12.37;77.36;102755.66;5076914;27;96808;-29
2023/05/31 05:34:59;;;;;;;5.38;2.13;;;;;;;12.49;77.57;102770.63;5094702;27;100212;-28
2023/05/31 05:37:25;;;;;;;5.22;1.92;;;;;;;12.57;77.63;102765.75;5095877;27;99553;-28
2023/05/31 05:39:50;;;;;;;4.00;2.45;;;;;;;12.60;77.63;102762.03;5095081;27;106713;-28
2023/05/31 05:42:15;;;;;;;4.35;1.95;;;;;;;12.66;77.77;102762.69;5095315;27;98791;-28
2023/05/31 05:44:41;;;;;;;5.13;2.25;;;;;;;12.75;77.29;102762.31;5094572;27;114657;-28
2023/05/31 05:47:06;;;;;;;3.97;2.08;;;;;;;12.79;78.01;102757.63;5095487;27;98411;-28
2023/05/31 05:49:33;;;;;;;4.28;1.90;;;;;;;12.98;76.73;102767.75;5095715;27;96508;-28
2023/05/31 05:51:59;;;;;;;5.07;2.30;;;;;;;13.11;76.82;102774.50;5076858;27;96744;-27
2023/05/31 05:54:24;;;;;;;4.75;2.28;;;;;;;13.12;76.26;102768.97;5095442;27;97668;-27
2023/05/31 05:56:49;;;;;;;6.07;2.45;;;;;;;13.26;75.51;102767.50;5094725;27;107263;-27
2023/05/31 05:59:15;;;;;;;3.25;2.13;;;;;;;13.39;75.57;102774.22;5094549;27;96782;-28
2023/05/31 06:01:40;;;;;;;6.03;2.20;;;;;;;13.47;76.35;102779.38;5074533;27;97408;-29
2023/05/31 06:04:06;;;;;;;4.57;2.25;;;;;;;13.45;75.40;102771.25;5074188;27;101323;-28
2023/05/31 06:06:31;;;;;;;4.93;2.30;;;;;;;13.44;75.84;102765.88;5092847;27;97774;-34
2023/05/31 06:08:57;;;;;;;3.50;1.83;;;;;;;13.54;75.61;102768.13;5074188;27;97063;-28
2023/05/31 06:11:22;;;;;;;5.35;2.47;;;;;;;13.65;75.63;102772.22;5094866;27;97189;-27
2023/05/31 06:13:48;;;;;;;4.88;2.40;;;;;;;13.71;75.33;102763.81;5094769;27;99172;-28
2023/05/31 06:16:14;;;;;;;7.22;2.30;;;;;;;13.83;75.10;102767.81;5095013;27;97269;-28
2023/05/31 06:18:39;;;;;;;5.03;2.55;;;;;;;13.88;74.39;102763.94;5076491;27;96568;-28
2023/05/31 06:21:05;;;;;;;3.67;2.20;;;;;;;14.02;74.58;102774.22;5094192;27;96840;-31
2023/05/31 06:23:30;;;;;;;5.57;2.67;;;;;;;14.06;74.05;102764.91;5090568;27;98429;-35
2023/05/31 06:25:56;;;;;;;7.57;2.15;;;;;;;14.22;74.26;102778.75;5091216;27;99658;-31
2023/05/31 06:28:21;;;;;;;5.07;2.33;;;;;;;14.36;73.64;102778.09;5090780;27;97087;-29
2023/05/31 06:30:46;;;;;;;4.55;2.33;;;;;;;14.49;73.31;102778.41;5091380;27;97400;-37
2023/05/31 06:33:12;;;;;;;5.00;2.35;;;;;;;14.59;72.90;102780.69;5090633;27;97927;-31
2023/05/31 06:35:39;;;;;;;5.43;2.45;;;;;;;14.67;72.98;102780.31;5090440;27;97855;-31
2023/05/31 06:38:05;;;;;;;4.80;2.20;;;;;;;14.79;72.74;102774.25;5093361;27;96694;-28
2023/05/31 06:40:30;;;;;;;7.60;2.65;;;;;;;14.95;72.32;102776.25;5094867;27;96804;-28
2023/05/31 06:42:55;;;;;;;6.43;2.33;;;;;;;15.02;72.41;102775.00;5094554;27;98056;-28
2023/05/31 06:45:21;;;;;;;5.43;2.55;;;;;;;15.06;71.60;102768.38;5094305;27;107912;-29
2023/05/31 06:47:46;;;;;;;4.97;2.58;;;;;;;15.16;71.32;102771.53;5076346;27;96657;-27
2023/05/31 06:50:12;;;;;;;7.97;2.85;;;;;;;15.21;71.39;102773.09;5095049;27;96874;-27
2023/05/31 06:52:39;;;;;;;4.88;2.35;;;;;;;15.30;71.20;102777.19;5075620;27;101049;-28
2023/05/31 06:55:05;;;;;;;4.68;2.72;;;;;;;15.33;71.04;102771.59;5075506;27;100663;-28
2023/05/31 06:57:31;;;;;;;6.07;2.42;;;;;;;15.45;70.59;102778.28;5093596;27;96663;-27
2023/05/31 06:59:56;;;;;;;4.97;2.53;;;;;;;15.54;70.64;102755.97;5094497;27;96876;-28
2023/05/31 07:02:22;;;;;;;5.30;2.30;;;;;;;15.64;70.09;102759.97;5094269;27;97931;-28
2023/05/31 07:04:47;;;;;;;5.43;2.97;;;;;;;15.74;70.04;102771.34;5094370;27;97280;-27
2023/05/31 07:07:12;;;;;;;5.72;2.72;;;;;;;15.84;69.96;102760.81;5094205;27;96721;-27
2023/05/31 07:09:38;;;;;;;7.07;2.55;;;;;;;15.93;69.67;102760.31;5094121;27;96867;-27
2023/05/31 07:12:03;;;;;;;8.02;3.33;;;;;;;15.98;69.54;102760.94;5094228;27;97456;-27
2023/05/31 07:14:29;;;;;;;5.00;2.65;;;;;;;16.10;68.86;102754.81;5094577;27;97503;-27
2023/05/31 07:16:54;;;;;;;5.45;2.55;;;;;;;16.28;69.02;102762.97;5093810;27;96874;-27
2023/05/31 07:19:19;;;;;;;7.88;2.72;;;;;;;16.35;68.36;102756.19;5093899;27;96831;-28
2023/05/31 07:21:45;;;;;;;4.85;2.65;;;;;;;16.47;68.29;102757.34;5093286;27;99899;-27
2023/05/31 07:24:10;;;;;;;5.57;2.65;;;;;;;16.62;68.00;102753.78;5093363;27;104479;-27
2023/05/31 07:26:35;;;;;;;4.10;2.22;;;;;;;16.75;67.15;102745.75;5093788;27;96649;-27
2023/05/31 07:29:01;;;;;;;8.75;2.40;;;;;;;16.77;66.48;102747.41;5075288;27;96567;-28
2023/05/31 07:31:26;;;;;;;4.28;2.47;;;;;;;16.96;66.82;102747.25;5075227;27;99534;-27
2023/05/31 07:33:52;;;;;;;7.82;2.55;;;;;;;16.98;66.82;102737.13;5093454;27;97907;-28
2023/05/31 07:36:18;;;;;;;6.55;2.70;;;;;;;17.15;66.37;102748.94;5093308;27;96877;-28
2023/05/31 07:38:43;;;;;;;5.05;2.13;;;;;;;17.26;66.21;102743.72;5093984;27;96797;-28
2023/05/31 07:41:09;;;;;;;4.50;2.20;;;;;;;17.41;65.81;102753.75;5093494;27;99129;-27
2023/05/31 07:43:34;;;;;;;6.05;2.92;;;;;;;17.52;65.25;102750.38;5093744;27;97754;-27
2023/05/31 07:46:00;;;;;;;7.45;2.63;;;;;;;17.64;64.96;102748.75;5074639;27;96656;-28
2023/05/31 07:48:25;;;;;;;5.28;2.55;;;;;;;17.65;65.18;102734.03;5092365;27;96858;-27
2023/05/31 07:50:51;;;;;;;5.53;2.45;;;;;;;17.80;64.59;102735.91;5093582;27;97860;-27
2023/05/31 07:53:16;;;;;;;7.50;2.28;;;;;;;17.98;64.06;102739.34;5093418;27;97857;-27
2023/05/31 07:55:42;;;;;;;5.63;2.42;;;;;;;18.04;63.45;102725.25;5093482;27;96649;-27
2023/05/31 07:58:07;;;;;;;5.22;2.53;;;;;;;18.13;63.79;102726.50;5074877;27;96878;-27
2023/05/31 08:00:32;;;;;;;5.80;2.67;;;;;;;18.28;63.27;102726.50;5075198;27;99615;-28
2023/05/31 08:02:58;;;;;;;8.02;2.40;;;;;;;18.28;63.20;102729.25;5093618;27;99619;-28
2023/05/31 08:05:23;;;;;;;8.52;2.65;;;;;;;18.36;63.17;102727.78;5093794;27;96516;-27
2023/05/31 08:07:49;;;;;;;5.88;2.53;;;;;;;18.53;62.87;102725.81;5093082;27;96880;-28
2023/05/31 08:10:16;;;;;;;4.95;2.40;;;;;;;18.66;62.54;102721.25;5074050;27;101272;-31
2023/05/31 08:12:41;;;;;;;4.63;2.42;;;;;;;18.83;62.22;102734.81;5074629;27;101562;-27
2023/05/31 08:15:07;;;;;;;6.40;2.50;;;;;;;18.94;61.64;102739.56;5093487;27;96607;-27
2023/05/31 08:17:33;;;;;;;6.00;2.55;;;;;;;18.97;60.86;102725.63;5074377;27;96901;-27
2023/05/31 08:19:58;;;;;;;6.55;2.65;;;;;;;19.01;61.20;102734.56;5093098;27;97935;-28
2023/05/31 08:22:23;;;;;;;4.03;2.15;;;;;;;18.91;60.91;102720.56;5092980;27;98352;-27
2023/05/31 08:24:49;;;;;;;5.35;2.33;;;;;;;18.89;61.70;102722.53;5093144;27;96576;-27
2023/05/31 08:27:17;;;;;;;5.95;2.72;;;;;;;19.11;61.42;102732.94;5074805;27;96773;-27
2023/05/31 08:29:42;;;;;;;5.03;2.33;;;;;;;19.13;60.62;102728.22;5092678;27;99443;-27
2023/05/31 08:32:07;;;;;;;6.60;2.42;;;;;;;19.29;61.05;102733.56;5092695;27;97880;-27
2023/05/31 08:34:33;;;;;;;4.40;2.47;;;;;;;19.40;60.69;102711.72;5092628;27;96682;-30
2023/05/31 08:36:59;;;;;;;6.75;2.45;;;;;;;19.50;60.17;102720.22;5092196;27;96892;-28
2023/05/31 08:39:25;;;;;;;6.55;2.65;;;;;;;19.64;59.95;102716.47;5074298;27;101706;-29
2023/05/31 08:41:58;;;;;;;6.30;2.33;;;;;;;19.85;59.73;102722.38;5092484;27;99510;-27
2023/05/31 08:44:23;;;;;;;6.50;2.42;;;;;;;19.97;59.54;102715.97;5074376;27;96691;-27
2023/05/31 08:46:49;;;;;;;9.30;2.75;;;;;;;19.94;58.77;102719.84;5074712;27;96784;-27
2023/05/31 08:49:16;;;;;;;5.13;2.28;;;;;;;19.93;59.30;102711.72;5092646;27;99189;-27
2023/05/31 08:51:47;;;;;;;7.60;3.25;;;;;;;19.99;58.30;102705.75;5074218;27;101137;-28
2023/05/31 08:54:14;;;;;;;4.82;2.70;;;;;;;20.08;58.49;102702.34;5092981;27;96614;-27
2023/05/31 08:56:40;;;;;;;6.70;2.88;;;;;;;20.22;57.89;102712.34;5073975;27;96870;-27
2023/05/31 08:59:11;;;;;;;4.18;2.40;;;;;;;20.28;57.25;102705.50;5074413;27;101555;-27
2023/05/31 09:01:37;;;;;;;4.57;2.40;;;;;;;20.39;56.63;102705.63;5077576;27;99441;-27
2023/05/31 09:04:06;;;;;;;5.60;2.35;;;;;;;20.49;57.13;102700.31;5077266;27;96691;-27
2023/05/31 09:06:33;;;;;;;6.20;2.50;;;;;;;20.62;56.28;102698.44;5077648;27;96857;-28
2023/05/31 09:09:00;;;;;;;8.23;2.83;;;;;;;20.63;56.84;102697.44;5077380;27;101260;-27
2023/05/31 09:11:25;;;;;;;4.93;2.53;;;;;;;20.72;56.46;102702.25;5077426;27;100553;-27
2023/05/31 09:13:51;;;;;;;5.18;2.47;;;;;;;20.77;56.11;102702.78;5077494;27;96609;-27
2023/05/31 09:16:16;;;;;;;6.05;2.60;;;;;;;20.88;56.04;102702.00;5096389;27;96542;-28
2023/05/31 09:18:42;;;;;;;3.83;2.08;;;;;;;21.02;55.94;102706.41;5095671;27;98129;-27
2023/05/31 09:21:12;;;;;;;6.28;2.63;;;;;;;21.04;55.16;102707.19;5095734;27;99069;-27
2023/05/31 09:23:37;;;;;;;8.40;3.13;;;;;;;21.13;55.87;102694.59;5095707;27;96642;-27
2023/05/31 09:26:06;;;;;;;6.32;2.35;;;;;;;21.21;55.07;102695.75;5095907;27;96837;-27
2023/05/31 09:28:32;;;;;;;5.53;2.35;;;;;;;21.34;55.05;102692.06;5077188;27;101359;-27
2023/05/31 09:31:09;;;;;;;5.25;2.47;;;;;;;21.42;54.83;102692.34;5095746;27;97856;-27
2023/05/31 09:33:43;;;;;;;6.70;2.70;;;;;;;21.38;53.72;102674.25;5077038;27;96635;-26
2023/05/31 09:36:11;;;;;;;7.57;2.65;;;;;;;21.51;54.34;102680.59;5076400;27;96752;-27
2023/05/31 09:38:37;;;;;;;5.35;2.40;;;;;;;21.73;53.41;102690.78;5095447;27;97225;-27
2023/05/31 09:41:15;;;;;;;11.38;2.67;;;;;;;21.87;54.30;102697.09;5077278;27;100715;-27
2023/05/31 09:43:42;;;;;;;7.43;2.22;;;;;;;21.97;54.31;102692.59;5076925;27;96825;-27
2023/05/31 09:46:21;;;;;;;6.60;2.63;;;;;;;22.00;54.13;102686.81;5076948;27;96889;-27
2023/05/31 09:49:04;;;;;;;7.38;2.42;;;;;;;22.04;53.83;102686.44;5076136;27;100033;-27
2023/05/31 09:51:33;;;;;;;3.97;2.15;;;;;;;22.22;53.31;102683.25;5076654;27;100757;-27
2023/05/31 09:54:10;;;;;;;5.63;2.28;;;;;;;22.34;52.41;102686.88;5095381;27;96506;-27
2023/05/31 09:56:40;;;;;;;6.07;2.50;;;;;;;22.42;53.35;102670.53;5076815;27;96730;-27
2023/05/31 09:59:07;;;;;;;5.20;2.30;;;;;;;22.42;52.18;102682.47;5095019;27;99085;-28
2023/05/31 10:01:33;;;;;;;5.03;2.72;;;;;;;22.59;53.11;102678.28;5076560;27;100970;-27
2023/05/31 10:03:59;;;;;;;7.53;2.20;;;;;;;22.75;52.46;102677.88;5095638;27;96505;-27
2023/05/31 10:06:24;;;;;;;4.57;2.22;;;;;;;22.82;52.23;102679.13;5077083;27;96833;-28
2023/05/31 10:08:50;;;;;;;5.85;2.33;;;;;;;22.87;52.37;102674.09;5095180;27;97992;-29
2023/05/31 10:11:26;;;;;;;6.30;2.70;;;;;;;22.96;52.31;102672.44;5075533;27;99362;-27
2023/05/31 10:13:59;;;;;;;5.00;2.28;;;;;;;22.92;52.47;102673.69;5076069;27;97077;-27
2023/05/31 10:16:26;;;;;;;4.53;2.30;;;;;;;22.97;51.68;102676.06;5094735;27;96851;-27
2023/05/31 10:18:56;;;;;;;5.90;2.53;;;;;;;22.89;51.40;102673.97;5076252;27;101525;-27
2023/05/31 10:21:24;;;;;;;4.88;2.35;;;;;;;23.00;51.66;102665.66;5076289;27;100913;-27
2023/05/31 10:24:04;;;;;;;3.80;1.90;;;;;;;23.07;51.70;102664.13;5076444;27;96567;-28
2023/05/31 10:26:46;;;;;;;3.53;2.03;;;;;;;23.17;50.47;102652.25;5076326;27;96582;-27
2023/05/31 10:29:23;;;;;;;7.78;2.28;;;;;;;23.10;51.07;102660.22;5076236;27;101045;-27
2023/05/31 10:31:50;;;;;;;7.22;2.53;;;;;;;23.21;51.11;102659.28;5076025;27;100947;-27
2023/05/31 10:34:22;;;;;;;7.40;2.58;;;;;;;23.28;50.33;102652.22;5076303;27;96672;-28
2023/05/31 10:36:49;;;;;;;6.60;2.58;;;;;;;23.27;50.93;102647.69;5075808;27;96790;-27
2023/05/31 10:39:37;;;;;;;6.18;2.70;;;;;;;23.40;50.34;102644.72;5075474;27;101049;-27
2023/05/31 10:42:11;;;;;;;6.25;2.28;;;;;;;23.57;50.55;102654.31;5075632;27;100888;-27
2023/05/31 10:44:58;;;;;;;6.97;2.72;;;;;;;23.71;50.25;102646.53;5076207;27;96593;-27
2023/05/31 10:47:33;;;;;;;4.72;2.58;;;;;;;23.69;50.37;102648.56;5094866;27;96673;-27
2023/05/31 10:50:01;;;;;;;6.20;3.03;;;;;;;23.68;49.97;102626.56;5075957;27;100858;-27
2023/05/31 10:52:30;;;;;;;5.90;2.22;;;;;;;23.93;50.26;102628.03;5094127;27;98107;-27
2023/05/31 10:55:16;;;;;;;7.45;2.63;;;;;;;23.96;49.47;102630.53;5094480;27;96768;-27
2023/05/31 10:57:41;;;;;;;6.47;2.92;;;;;;;24.00;49.02;102637.53;5076075;27;96777;-27
2023/05/31 11:00:08;;;;;;;7.55;2.97;;;;;;;23.96;50.06;102638.84;5094008;27;99539;-27
2023/05/31 11:02:33;;;;;;;5.72;2.70;;;;;;;23.96;50.30;102636.06;5075626;27;101290;-27
2023/05/31 11:05:17;;;;;;;5.95;2.67;;;;;;;24.01;49.74;102621.81;5093963;27;96792;-27
2023/05/31 11:07:43;;;;;;;7.93;3.20;;;;;;;23.86;49.36;102615.75;5094212;27;96707;-28
2023/05/31 11:10:10;;;;;;;7.78;2.75;;;;;;;23.93;49.73;102625.25;5094249;27;98142;-27
2023/05/31 11:12:40;;;;;;;5.50;2.42;;;;;;;24.13;49.71;102620.69;5075343;27;100762;-27
2023/05/31 11:15:13;;;;;;;7.47;2.53;;;;;;;24.23;48.48;102617.94;5075615;27;97379;-27
2023/05/31 11:17:41;;;;;;;4.45;2.40;;;;;;;24.24;49.30;102611.38;5093919;27;96774;-27
2023/05/31 11:20:07;;;;;;;8.93;3.17;;;;;;;24.25;49.43;102619.56;5093764;27;99331;-27
2023/05/31 11:22:32;;;;;;;6.22;2.97;;;;;;;24.30;48.93;102619.16;5075581;27;100700;-27
2023/05/31 11:24:58;;;;;;;7.60;3.17;;;;;;;24.31;48.70;102615.34;5094362;27;96683;-27